createdAt,value
2019-06-01T00:00:42.300Z,0.00
2019-06-01T00:01:42.452Z,0.00
2019-06-01T00:02:45.365Z,0.00
2019-06-01T00:03:44.222Z,0.00
2019-06-01T00:04:42.968Z,0.00
2019-06-01T00:05:42.576Z,0.00
2019-06-01T00:06:42.813Z,0.00
2019-06-01T00:07:42.939Z,0.00
2019-06-01T00:08:43.102Z,0.00
2019-06-01T00:09:43.023Z,0.00
2019-06-01T00:10:42.980Z,0.00
2019-06-01T00:11:43.346Z,0.00
2019-06-01T00:12:43.266Z,0.00
2019-06-01T00:13:43.389Z,0.00
2019-06-01T00:14:42.160Z,0.00
2019-06-01T00:15:42.139Z,0.00
2019-06-01T00:16:42.148Z,0.00
2019-06-01T00:17:42.114Z,0.00
2019-06-01T00:18:42.110Z,0.00
2019-06-01T00:19:42.107Z,0.00
2019-06-01T00:20:42.277Z,0.00
2019-06-01T00:21:43.210Z,0.00
2019-06-01T00:22:43.248Z,0.00
2019-06-01T00:23:42.487Z,0.00
2019-06-01T00:24:42.045Z,0.00
2019-06-01T00:25:42.621Z,0.00
2019-06-01T00:26:42.022Z,0.00
2019-06-01T00:27:42.485Z,0.00
2019-06-01T00:28:42.006Z,0.00
2019-06-01T00:29:42.709Z,0.00
2019-06-01T00:30:41.992Z,0.00
2019-06-01T00:31:43.066Z,0.00
2019-06-01T00:32:42.985Z,0.00
2019-06-01T00:33:43.285Z,0.00
2019-06-01T00:34:41.939Z,0.00
2019-06-01T00:35:41.927Z,0.00
2019-06-01T00:36:41.920Z,0.00
2019-06-01T00:37:41.938Z,0.00
2019-06-01T00:38:41.890Z,0.00
2019-06-01T00:39:41.878Z,0.00
2019-06-01T00:40:41.867Z,0.00
2019-06-01T00:41:42.005Z,0.00
2019-06-01T00:42:42.051Z,0.00
2019-06-01T00:43:42.105Z,0.00
2019-06-01T00:44:42.095Z,0.00
2019-06-01T00:45:42.302Z,0.00
2019-06-01T00:46:42.541Z,0.00
2019-06-01T00:47:42.647Z,0.00
2019-06-01T00:48:41.788Z,0.00
2019-06-01T00:49:42.708Z,0.00
2019-06-01T00:50:43.045Z,0.00
2019-06-01T00:51:42.830Z,0.00
2019-06-01T00:52:42.875Z,0.00
2019-06-01T00:53:43.190Z,0.00
2019-06-01T00:54:41.737Z,0.00
2019-06-01T00:55:41.709Z,0.00
2019-06-01T00:56:41.704Z,0.00
2019-06-01T00:57:41.691Z,0.00
2019-06-01T00:58:41.680Z,0.00
2019-06-01T00:59:41.662Z,0.00
2019-06-01T01:00:44.152Z,0.00
2019-06-01T01:01:41.645Z,0.00
2019-06-01T01:02:41.635Z,0.00
2019-06-01T01:03:41.631Z,0.00
2019-06-01T01:04:41.633Z,0.00
2019-06-01T01:05:41.598Z,0.00
2019-06-01T01:06:41.590Z,0.00
2019-06-01T01:07:41.600Z,0.00
2019-06-01T01:08:41.570Z,0.00
2019-06-01T01:09:41.552Z,0.00
2019-06-01T01:10:41.545Z,0.00
2019-06-01T01:11:41.536Z,0.00
2019-06-01T01:12:41.541Z,0.00
2019-06-01T01:13:41.523Z,0.00
2019-06-01T01:14:41.502Z,0.00
2019-06-01T01:15:41.493Z,0.00
2019-06-01T01:16:41.476Z,0.00
2019-06-01T01:17:41.474Z,0.00
2019-06-01T01:18:41.496Z,0.00
2019-06-01T01:19:41.449Z,0.00
2019-06-01T01:20:41.442Z,0.00
2019-06-01T01:21:41.427Z,0.00
2019-06-01T01:22:41.411Z,0.00
2019-06-01T01:23:41.412Z,0.00
2019-06-01T01:24:41.408Z,0.00
2019-06-01T01:25:41.381Z,0.00
2019-06-01T01:26:41.373Z,0.00
2019-06-01T01:27:41.358Z,0.00
2019-06-01T01:28:41.353Z,0.00
2019-06-01T01:29:41.358Z,0.00
2019-06-01T01:30:41.329Z,0.00
2019-06-01T01:31:41.316Z,0.00
2019-06-01T01:32:41.307Z,0.00
2019-06-01T01:33:41.306Z,0.00
2019-06-01T01:34:41.357Z,0.00
2019-06-01T01:35:41.278Z,0.00
2019-06-01T01:36:41.257Z,0.00
2019-06-01T01:37:41.254Z,0.00
2019-06-01T01:38:41.238Z,0.00
2019-06-01T01:39:41.226Z,0.00
2019-06-01T01:40:41.223Z,0.00
2019-06-01T01:41:41.205Z,0.00
2019-06-01T01:42:41.193Z,0.00
2019-06-01T01:43:41.181Z,0.00
2019-06-01T01:44:41.171Z,0.00
2019-06-01T01:45:41.175Z,0.00
2019-06-01T01:46:41.158Z,0.00
2019-06-01T01:47:41.140Z,0.00
2019-06-01T01:48:41.129Z,0.00
2019-06-01T01:49:41.129Z,0.00
2019-06-01T01:50:41.120Z,0.00
2019-06-01T01:51:41.113Z,0.00
2019-06-01T01:52:41.084Z,0.00
2019-06-01T01:53:41.075Z,0.00
2019-06-01T01:54:41.067Z,0.00
2019-06-01T01:55:41.052Z,0.00
2019-06-01T01:56:48.092Z,0.00
2019-06-01T01:57:41.030Z,0.00
2019-06-01T01:58:41.020Z,0.00
2019-06-01T01:59:41.008Z,0.00
2019-06-01T02:00:40.996Z,0.00
2019-06-01T02:01:40.995Z,0.00
2019-06-01T02:02:40.978Z,0.00
2019-06-01T02:03:40.972Z,0.00
2019-06-01T02:04:40.964Z,0.00
2019-06-01T02:05:40.956Z,0.00
2019-06-01T02:06:40.948Z,0.00
2019-06-01T02:07:40.933Z,0.00
2019-06-01T02:08:40.918Z,0.00
2019-06-01T02:09:40.909Z,0.00
2019-06-01T02:10:40.893Z,0.00
2019-06-01T02:11:40.879Z,0.00
2019-06-01T02:12:40.908Z,0.00
2019-06-01T02:13:40.863Z,0.00
2019-06-01T02:14:40.849Z,0.00
2019-06-01T02:15:40.844Z,0.00
2019-06-01T02:16:40.829Z,0.00
2019-06-01T02:17:40.825Z,0.00
2019-06-01T02:18:40.813Z,0.00
2019-06-01T02:19:40.799Z,0.00
2019-06-01T02:20:40.790Z,0.00
2019-06-01T02:21:40.775Z,0.00
2019-06-01T02:22:40.811Z,0.00
2019-06-01T02:23:40.765Z,0.00
2019-06-01T02:24:40.744Z,0.00
2019-06-01T02:25:40.729Z,0.00
2019-06-01T02:26:40.719Z,0.00
2019-06-01T02:27:40.714Z,0.00
2019-06-01T02:28:40.711Z,0.00
2019-06-01T02:29:40.696Z,0.00
2019-06-01T02:30:40.679Z,0.00
2019-06-01T02:31:42.818Z,0.00
2019-06-01T02:32:40.659Z,0.00
2019-06-01T02:33:40.649Z,0.00
2019-06-01T02:34:40.640Z,0.00
2019-06-01T02:35:40.627Z,0.00
2019-06-01T02:36:40.616Z,0.00
2019-06-01T02:37:40.601Z,0.00
2019-06-01T02:38:40.594Z,0.00
2019-06-01T02:39:40.590Z,0.00
2019-06-01T02:40:40.574Z,0.00
2019-06-01T02:41:40.565Z,0.00
2019-06-01T02:42:40.546Z,0.00
2019-06-01T02:43:40.535Z,0.00
2019-06-01T02:44:40.562Z,0.00
2019-06-01T02:45:40.517Z,0.00
2019-06-01T02:46:40.509Z,0.00
2019-06-01T02:47:40.494Z,0.00
2019-06-01T02:48:40.485Z,0.00
2019-06-01T02:49:40.469Z,0.00
2019-06-01T02:50:40.474Z,0.00
2019-06-01T02:51:40.457Z,0.00
2019-06-01T02:52:40.439Z,0.00
2019-06-01T02:53:40.426Z,0.00
2019-06-01T02:54:40.420Z,0.00
2019-06-01T02:55:40.419Z,0.00
2019-06-01T02:56:40.401Z,0.00
2019-06-01T02:57:40.387Z,0.00
2019-06-01T02:58:40.372Z,0.00
2019-06-01T02:59:40.368Z,0.00
2019-06-01T03:00:40.385Z,0.00
2019-06-01T03:01:55.991Z,0.00
2019-06-01T03:02:41.329Z,5.62
2019-06-01T03:03:40.320Z,5.62
2019-06-01T03:04:40.315Z,5.62
2019-06-01T03:05:40.299Z,5.62
2019-06-01T03:06:40.295Z,5.62
2019-06-01T03:07:40.276Z,5.62
2019-06-01T03:08:40.267Z,5.62
2019-06-01T03:09:40.261Z,5.62
2019-06-01T03:10:40.249Z,5.62
2019-06-01T03:11:40.247Z,5.62
2019-06-01T03:12:40.233Z,5.62
2019-06-01T03:13:40.218Z,5.62
2019-06-01T03:14:40.216Z,5.62
2019-06-01T03:15:40.192Z,5.62
2019-06-01T03:16:40.606Z,5.62
2019-06-01T03:17:40.177Z,11.25
2019-06-01T03:18:40.164Z,11.25
2019-06-01T03:19:40.155Z,11.25
2019-06-01T03:20:40.144Z,11.25
2019-06-01T03:21:40.127Z,11.25
2019-06-01T03:22:40.116Z,11.25
2019-06-01T03:23:40.109Z,11.25
2019-06-01T03:24:40.104Z,11.25
2019-06-01T03:25:40.086Z,11.25
2019-06-01T03:26:40.072Z,11.25
2019-06-01T03:27:40.062Z,11.25
2019-06-01T03:28:40.051Z,11.25
2019-06-01T03:29:40.053Z,16.88
2019-06-01T03:30:44.766Z,16.88
2019-06-01T03:31:41.054Z,16.88
2019-06-01T03:32:40.010Z,16.88
2019-06-01T03:33:40.001Z,16.88
2019-06-01T03:34:39.993Z,16.88
2019-06-01T03:35:39.982Z,16.88
2019-06-01T03:36:39.980Z,16.88
2019-06-01T03:37:39.972Z,16.88
2019-06-01T03:38:39.949Z,16.88
2019-06-01T03:39:39.938Z,16.88
2019-06-01T03:40:39.931Z,22.50
2019-06-01T03:41:39.912Z,22.50
2019-06-01T03:42:39.906Z,22.50
2019-06-01T03:43:39.895Z,22.50
2019-06-01T03:44:39.885Z,22.50
2019-06-01T03:45:39.898Z,22.50
2019-06-01T03:46:39.860Z,22.50
2019-06-01T03:47:39.852Z,22.50
2019-06-01T03:48:39.838Z,22.50
2019-06-01T03:49:39.833Z,22.50
2019-06-01T03:50:39.815Z,22.50
2019-06-01T03:51:39.819Z,28.12
2019-06-01T03:52:39.797Z,28.12
2019-06-01T03:53:39.783Z,28.12
2019-06-01T03:54:39.776Z,28.12
2019-06-01T03:55:39.764Z,28.12
2019-06-01T03:56:39.786Z,28.12
2019-06-01T03:57:39.741Z,28.12
2019-06-01T03:58:39.726Z,28.12
2019-06-01T03:59:39.716Z,33.75
2019-06-01T04:00:39.706Z,33.75
2019-06-01T04:01:39.699Z,33.75
2019-06-01T04:02:39.713Z,33.75
2019-06-01T04:03:39.678Z,33.75
2019-06-01T04:04:39.668Z,33.75
2019-06-01T04:05:39.658Z,33.75
2019-06-01T04:06:39.646Z,39.38
2019-06-01T04:07:39.631Z,39.38
2019-06-01T04:08:39.628Z,33.75
2019-06-01T04:09:39.609Z,39.38
2019-06-01T04:10:39.598Z,33.75
2019-06-01T04:11:39.587Z,33.75
2019-06-01T04:12:39.583Z,39.38
2019-06-01T04:13:39.575Z,39.38
2019-06-01T04:14:39.557Z,39.38
2019-06-01T04:15:39.549Z,39.38
2019-06-01T04:16:39.539Z,39.38
2019-06-01T04:17:39.522Z,39.38
2019-06-01T04:18:39.524Z,39.38
2019-06-01T04:19:39.500Z,39.38
2019-06-01T04:20:39.561Z,45.00
2019-06-01T04:21:39.484Z,45.00
2019-06-01T04:22:39.473Z,45.00
2019-06-01T04:23:39.488Z,45.00
2019-06-01T04:24:39.446Z,45.00
2019-06-01T04:25:39.435Z,45.00
2019-06-01T04:26:39.430Z,50.62
2019-06-01T04:27:39.416Z,50.62
2019-06-01T04:28:39.403Z,56.25
2019-06-01T04:29:39.400Z,56.25
2019-06-01T04:30:39.383Z,61.88
2019-06-01T04:31:39.380Z,61.88
2019-06-01T04:32:49.332Z,61.88
2019-06-01T04:33:40.348Z,67.50
2019-06-01T04:34:39.350Z,67.50
2019-06-01T04:35:39.342Z,67.50
2019-06-01T04:36:39.322Z,67.50
2019-06-01T04:37:39.311Z,61.88
2019-06-01T04:38:39.294Z,61.88
2019-06-01T04:39:39.297Z,61.88
2019-06-01T04:40:39.276Z,67.50
2019-06-01T04:41:39.263Z,61.88
2019-06-01T04:42:39.257Z,67.50
2019-06-01T04:43:39.244Z,67.50
2019-06-01T04:44:39.277Z,61.88
2019-06-01T04:45:39.218Z,67.50
2019-06-01T04:46:39.206Z,61.88
2019-06-01T04:47:39.199Z,67.50
2019-06-01T04:48:39.188Z,73.12
2019-06-01T04:49:39.180Z,73.12
2019-06-01T04:50:39.210Z,73.12
2019-06-01T04:51:39.153Z,78.75
2019-06-01T04:52:39.147Z,73.12
2019-06-01T04:53:39.133Z,78.75
2019-06-01T04:54:39.126Z,73.12
2019-06-01T04:55:39.109Z,73.12
2019-06-01T04:56:39.112Z,73.12
2019-06-01T04:57:39.093Z,78.75
2019-06-01T04:58:39.083Z,84.38
2019-06-01T04:59:39.069Z,78.75
2019-06-01T05:00:39.065Z,78.75
2019-06-01T05:01:39.047Z,84.38
2019-06-01T05:02:39.040Z,84.38
2019-06-01T05:03:39.024Z,78.75
2019-06-01T05:04:39.025Z,73.12
2019-06-01T05:05:39.005Z,67.50
2019-06-01T05:06:39.013Z,78.75
2019-06-01T05:07:38.992Z,84.38
2019-06-01T05:08:38.971Z,90.00
2019-06-01T05:09:38.966Z,95.62
2019-06-01T05:10:38.949Z,95.62
2019-06-01T05:11:38.950Z,101.25
2019-06-01T05:12:38.934Z,101.25
2019-06-01T05:13:38.923Z,106.88
2019-06-01T05:14:38.918Z,106.88
2019-06-01T05:15:38.896Z,101.25
2019-06-01T05:16:38.904Z,95.62
2019-06-01T05:17:38.880Z,95.62
2019-06-01T05:18:38.870Z,95.62
2019-06-01T05:19:38.854Z,90.00
2019-06-01T05:20:38.844Z,90.00
2019-06-01T05:21:38.839Z,84.38
2019-06-01T05:22:38.837Z,84.38
2019-06-01T05:23:38.813Z,84.38
2019-06-01T05:24:38.805Z,78.75
2019-06-01T05:25:38.791Z,84.38
2019-06-01T05:26:38.781Z,90.00
2019-06-01T05:27:38.783Z,90.00
2019-06-01T05:28:38.777Z,95.62
2019-06-01T05:29:38.749Z,95.62
2019-06-01T05:30:38.736Z,90.00
2019-06-01T05:31:38.730Z,90.00
2019-06-01T05:32:38.716Z,90.00
2019-06-01T05:33:38.734Z,90.00
2019-06-01T05:34:38.698Z,90.00
2019-06-01T05:35:38.684Z,84.38
2019-06-01T05:36:38.683Z,84.38
2019-06-01T05:37:38.719Z,84.38
2019-06-01T05:38:38.652Z,78.75
2019-06-01T05:39:38.669Z,78.75
2019-06-01T05:40:38.649Z,73.12
2019-06-01T05:41:38.626Z,73.12
2019-06-01T05:42:38.614Z,78.75
2019-06-01T05:43:38.599Z,78.75
2019-06-01T05:44:38.586Z,84.38
2019-06-01T05:45:38.584Z,84.38
2019-06-01T05:46:38.569Z,84.38
2019-06-01T05:47:38.554Z,84.38
2019-06-01T05:48:38.548Z,84.38
2019-06-01T05:49:38.532Z,84.38
2019-06-01T05:50:38.528Z,90.00
2019-06-01T05:51:38.510Z,90.00
2019-06-01T05:52:38.505Z,90.00
2019-06-01T05:53:38.489Z,90.00
2019-06-01T05:54:38.483Z,90.00
2019-06-01T05:55:38.490Z,90.00
2019-06-01T05:56:38.463Z,84.38
2019-06-01T05:57:38.462Z,84.38
2019-06-01T05:58:38.439Z,95.62
2019-06-01T05:59:38.435Z,106.88
2019-06-01T06:00:38.532Z,112.50
2019-06-01T06:01:38.407Z,118.12
2019-06-01T06:02:38.392Z,123.75
2019-06-01T06:03:40.613Z,157.50
2019-06-01T06:04:38.374Z,135.00
2019-06-01T06:05:38.365Z,174.38
2019-06-01T06:06:38.356Z,118.12
2019-06-01T06:07:38.341Z,118.12
2019-06-01T06:08:38.328Z,112.50
2019-06-01T06:09:38.326Z,112.50
2019-06-01T06:10:38.311Z,112.50
2019-06-01T06:11:38.300Z,112.50
2019-06-01T06:12:38.295Z,112.50
2019-06-01T06:13:38.287Z,112.50
2019-06-01T06:14:38.260Z,112.50
2019-06-01T06:15:38.267Z,112.50
2019-06-01T06:16:38.252Z,106.88
2019-06-01T06:17:38.237Z,106.88
2019-06-01T06:18:38.219Z,101.25
2019-06-01T06:19:38.222Z,101.25
2019-06-01T06:20:38.201Z,106.88
2019-06-01T06:21:38.190Z,106.88
2019-06-01T06:22:41.138Z,112.50
2019-06-01T06:23:38.162Z,112.50
2019-06-01T06:24:38.158Z,112.50
2019-06-01T06:25:40.156Z,112.50
2019-06-01T06:26:38.131Z,106.88
2019-06-01T06:27:38.120Z,106.88
2019-06-01T06:28:38.117Z,95.62
2019-06-01T06:29:38.098Z,90.00
2019-06-01T06:30:38.086Z,90.00
2019-06-01T06:31:38.076Z,95.62
2019-06-01T06:32:38.066Z,106.88
2019-06-01T06:33:38.072Z,118.12
2019-06-01T06:34:38.050Z,123.75
2019-06-01T06:35:38.040Z,129.38
2019-06-01T06:36:38.021Z,135.00
2019-06-01T06:37:38.019Z,157.50
2019-06-01T06:38:38.020Z,151.88
2019-06-01T06:39:37.991Z,157.50
2019-06-01T06:40:37.984Z,151.88
2019-06-01T06:41:37.974Z,157.50
2019-06-01T06:42:37.965Z,185.62
2019-06-01T06:43:37.983Z,174.38
2019-06-01T06:44:37.938Z,174.38
2019-06-01T06:45:37.924Z,438.75
2019-06-01T06:46:37.922Z,202.50
2019-06-01T06:47:37.918Z,635.62
2019-06-01T06:48:37.909Z,421.88
2019-06-01T06:49:37.890Z,270.00
2019-06-01T06:50:37.878Z,348.75
2019-06-01T06:51:37.873Z,331.88
2019-06-01T06:52:37.855Z,315.00
2019-06-01T06:53:37.844Z,821.25
2019-06-01T06:54:37.847Z,573.75
2019-06-01T06:55:37.831Z,500.62
2019-06-01T06:56:37.816Z,579.38
2019-06-01T06:57:37.801Z,427.50
2019-06-01T06:58:37.789Z,241.88
2019-06-01T06:59:37.779Z,247.50
2019-06-01T07:00:37.796Z,320.62
2019-06-01T07:01:37.759Z,860.62
2019-06-01T07:02:37.745Z,984.38
2019-06-01T07:03:37.748Z,258.75
2019-06-01T07:04:37.724Z,275.62
2019-06-01T07:05:37.757Z,213.75
2019-06-01T07:06:37.706Z,213.75
2019-06-01T07:07:37.706Z,225.00
2019-06-01T07:08:37.685Z,275.62
2019-06-01T07:09:37.682Z,466.88
2019-06-01T07:10:37.670Z,421.88
2019-06-01T07:11:37.676Z,208.12
2019-06-01T07:12:37.643Z,320.62
2019-06-01T07:13:37.631Z,275.62
2019-06-01T07:14:37.641Z,360.00
2019-06-01T07:15:37.622Z,303.75
2019-06-01T07:16:37.604Z,585.00
2019-06-01T07:17:37.638Z,973.12
2019-06-01T07:18:37.579Z,444.38
2019-06-01T07:19:37.577Z,472.50
2019-06-01T07:20:37.551Z,1012.50
2019-06-01T07:21:37.541Z,1006.88
2019-06-01T07:22:37.537Z,978.75
2019-06-01T07:23:37.544Z,1068.75
2019-06-01T07:24:37.508Z,714.38
2019-06-01T07:25:37.504Z,1141.88
2019-06-01T07:26:37.492Z,1136.25
2019-06-01T07:27:37.502Z,1141.88
2019-06-01T07:28:37.512Z,1096.88
2019-06-01T07:29:37.463Z,433.12
2019-06-01T07:30:49.678Z,534.38
2019-06-01T07:31:39.126Z,180.00
2019-06-01T07:32:37.431Z,196.88
2019-06-01T07:33:37.417Z,343.12
2019-06-01T07:34:41.759Z,337.50
2019-06-01T07:35:38.389Z,185.62
2019-06-01T07:36:37.383Z,202.50
2019-06-01T07:37:37.402Z,174.38
2019-06-01T07:38:37.363Z,1164.38
2019-06-01T07:39:37.348Z,1181.25
2019-06-01T07:40:37.340Z,1113.75
2019-06-01T07:41:37.335Z,523.12
2019-06-01T07:42:37.315Z,855.00
2019-06-01T07:43:37.353Z,928.12
2019-06-01T07:44:37.298Z,315.00
2019-06-01T07:45:37.290Z,1215.00
2019-06-01T07:46:37.286Z,1153.12
2019-06-01T07:47:37.263Z,1125.00
2019-06-01T07:48:37.276Z,1220.62
2019-06-01T07:49:37.247Z,1231.88
2019-06-01T07:50:37.236Z,1254.38
2019-06-01T07:51:37.227Z,1299.38
2019-06-01T07:52:37.222Z,1293.75
2019-06-01T07:53:37.199Z,1395.00
2019-06-01T07:54:37.228Z,1406.25
2019-06-01T07:55:37.184Z,1243.12
2019-06-01T07:56:37.176Z,410.62
2019-06-01T07:57:37.157Z,708.75
2019-06-01T07:58:37.152Z,438.75
2019-06-01T07:59:37.136Z,326.25
2019-06-01T08:00:37.140Z,1164.38
2019-06-01T08:01:37.117Z,1361.25
2019-06-01T08:02:37.108Z,1400.62
2019-06-01T08:03:37.101Z,1276.88
2019-06-01T08:04:52.767Z,1361.25
2019-06-01T08:05:38.091Z,866.25
2019-06-01T08:06:43.861Z,950.62
2019-06-01T08:07:38.058Z,500.62
2019-06-01T08:08:37.068Z,590.62
2019-06-01T08:09:37.033Z,348.75
2019-06-01T08:10:37.028Z,826.88
2019-06-01T08:11:37.014Z,1569.38
2019-06-01T08:12:37.011Z,1186.88
2019-06-01T08:13:36.997Z,669.38
2019-06-01T08:14:36.988Z,1530.00
2019-06-01T08:15:36.982Z,1541.25
2019-06-01T08:16:36.985Z,1501.88
2019-06-01T08:17:36.955Z,1507.50
2019-06-01T08:18:36.944Z,1591.88
2019-06-01T08:19:36.965Z,1670.62
2019-06-01T08:20:36.920Z,1603.12
2019-06-01T08:21:36.926Z,1580.62
2019-06-01T08:22:36.903Z,1276.88
2019-06-01T08:23:36.893Z,1344.38
2019-06-01T08:24:36.881Z,1440.00
2019-06-01T08:25:36.881Z,1485.00
2019-06-01T08:26:36.863Z,1372.50
2019-06-01T08:27:36.850Z,1282.50
2019-06-01T08:28:36.837Z,1366.88
2019-06-01T08:29:36.833Z,1417.50
2019-06-01T08:30:36.815Z,1524.38
2019-06-01T08:31:36.809Z,421.88
2019-06-01T08:32:36.794Z,1665.00
2019-06-01T08:33:36.800Z,551.25
2019-06-01T08:34:36.817Z,635.62
2019-06-01T08:35:36.770Z,641.25
2019-06-01T08:36:36.847Z,708.75
2019-06-01T08:37:36.750Z,1473.75
2019-06-01T08:38:36.740Z,365.62
2019-06-01T08:39:36.739Z,225.00
2019-06-01T08:40:36.770Z,208.12
2019-06-01T08:41:36.715Z,230.62
2019-06-01T08:42:36.701Z,343.12
2019-06-01T08:43:36.688Z,1091.25
2019-06-01T08:44:36.680Z,1389.38
2019-06-01T08:45:37.446Z,1220.62
2019-06-01T08:46:36.653Z,1153.12
2019-06-01T08:47:36.647Z,1226.25
2019-06-01T08:48:36.633Z,1254.38
2019-06-01T08:49:36.635Z,1209.38
2019-06-01T08:50:36.624Z,1530.00
2019-06-01T08:51:36.614Z,1479.38
2019-06-01T08:52:36.610Z,1417.50
2019-06-01T08:53:36.602Z,1462.50
2019-06-01T08:54:36.595Z,1473.75
2019-06-01T08:55:36.566Z,1569.38
2019-06-01T08:56:36.556Z,1603.12
2019-06-01T08:57:36.540Z,1417.50
2019-06-01T08:58:36.532Z,1642.50
2019-06-01T08:59:36.548Z,1580.62
2019-06-01T09:00:36.516Z,1558.12
2019-06-01T09:01:36.505Z,1608.75
2019-06-01T09:02:36.506Z,1659.38
2019-06-01T09:03:43.627Z,1546.88
2019-06-01T09:04:37.488Z,1575.00
2019-06-01T09:05:36.463Z,1445.62
2019-06-01T09:06:36.459Z,1333.12
2019-06-01T09:07:36.440Z,1012.50
2019-06-01T09:08:36.434Z,832.50
2019-06-01T09:09:36.422Z,455.62
2019-06-01T09:10:36.420Z,1383.75
2019-06-01T09:11:36.404Z,1254.38
2019-06-01T09:12:36.419Z,1383.75
2019-06-01T09:13:36.377Z,1625.62
2019-06-01T09:14:36.371Z,1406.25
2019-06-01T09:15:36.362Z,1215.00
2019-06-01T09:16:36.346Z,720.00
2019-06-01T09:17:36.341Z,843.75
2019-06-01T09:18:36.339Z,1035.00
2019-06-01T09:19:36.322Z,1361.25
2019-06-01T09:20:38.792Z,1507.50
2019-06-01T09:21:36.305Z,1338.75
2019-06-01T09:22:36.288Z,1344.38
2019-06-01T09:23:37.398Z,1355.62
2019-06-01T09:24:36.359Z,765.00
2019-06-01T09:25:36.257Z,1552.50
2019-06-01T09:26:36.254Z,669.38
2019-06-01T09:27:36.297Z,1237.50
2019-06-01T09:28:36.349Z,1254.38
2019-06-01T09:29:36.304Z,1372.50
2019-06-01T09:30:36.351Z,1479.38
2019-06-01T09:31:36.750Z,1468.12
2019-06-01T09:32:36.534Z,1513.12
2019-06-01T09:33:36.866Z,1501.88
2019-06-01T09:34:36.489Z,1653.75
2019-06-01T09:35:52.634Z,1400.62
2019-06-01T09:36:37.143Z,1423.12
2019-06-01T09:37:36.795Z,1681.88
2019-06-01T09:38:36.171Z,1704.38
2019-06-01T09:39:37.304Z,1687.50
2019-06-01T09:40:37.198Z,1918.12
2019-06-01T09:41:36.629Z,1715.62
2019-06-01T09:42:37.463Z,1800.00
2019-06-01T09:43:37.177Z,1822.50
2019-06-01T09:44:37.305Z,1659.38
2019-06-01T09:45:36.404Z,1518.75
2019-06-01T09:46:37.297Z,1434.38
2019-06-01T09:47:36.039Z,1552.50
2019-06-01T09:48:36.027Z,1642.50
2019-06-01T09:49:36.020Z,1293.75
2019-06-01T09:50:36.008Z,1580.62
2019-06-01T09:51:36.005Z,1738.12
2019-06-01T09:52:35.989Z,1552.50
2019-06-01T09:53:36.225Z,1732.50
2019-06-01T09:54:36.404Z,1687.50
2019-06-01T09:55:36.469Z,1766.25
2019-06-01T09:56:37.819Z,1518.75
2019-06-01T09:57:36.133Z,1321.88
2019-06-01T09:58:36.863Z,444.38
2019-06-01T09:59:36.068Z,450.00
2019-06-01T10:00:41.142Z,905.62
2019-06-01T10:01:36.896Z,973.12
2019-06-01T10:02:36.242Z,1462.50
2019-06-01T10:03:36.513Z,1400.62
2019-06-01T10:04:36.543Z,939.38
2019-06-01T10:05:36.508Z,1366.88
2019-06-01T10:06:36.696Z,1451.25
2019-06-01T10:07:37.014Z,1749.38
2019-06-01T10:08:36.151Z,1378.12
2019-06-01T10:09:35.845Z,1940.62
2019-06-01T10:10:36.027Z,1580.62
2019-06-01T10:11:36.052Z,298.12
2019-06-01T10:12:36.091Z,1771.88
2019-06-01T10:13:36.372Z,691.88
2019-06-01T10:14:36.210Z,2092.50
2019-06-01T10:15:36.474Z,2385.00
2019-06-01T10:16:36.805Z,2351.25
2019-06-01T10:17:37.068Z,2238.75
2019-06-01T10:18:36.929Z,2255.62
2019-06-01T10:19:36.721Z,2205.00
2019-06-01T10:20:36.943Z,2070.00
2019-06-01T10:21:36.159Z,2295.00
2019-06-01T10:22:37.062Z,2491.88
2019-06-01T10:23:36.576Z,2486.25
2019-06-01T10:24:35.672Z,2452.50
2019-06-01T10:25:36.493Z,2598.75
2019-06-01T10:26:35.810Z,2548.12
2019-06-01T10:27:36.707Z,2525.62
2019-06-01T10:28:35.814Z,2587.50
2019-06-01T10:29:36.757Z,2587.50
2019-06-01T10:30:35.830Z,2660.62
2019-06-01T10:31:39.682Z,2840.62
2019-06-01T10:32:37.884Z,2874.38
2019-06-01T10:33:37.303Z,2671.88
2019-06-01T10:34:35.721Z,2536.88
2019-06-01T10:35:36.857Z,2593.12
2019-06-01T10:36:35.976Z,1591.88
2019-06-01T10:37:35.545Z,2340.00
2019-06-01T10:38:35.535Z,253.12
2019-06-01T10:39:35.533Z,247.50
2019-06-01T10:40:35.518Z,292.50
2019-06-01T10:41:35.500Z,348.75
2019-06-01T10:42:36.119Z,1563.75
2019-06-01T10:43:35.670Z,495.00
2019-06-01T10:44:41.180Z,669.38
2019-06-01T10:45:37.710Z,253.12
2019-06-01T10:46:35.970Z,1766.25
2019-06-01T10:47:35.907Z,1614.38
2019-06-01T10:48:36.106Z,2565.00
2019-06-01T10:49:35.943Z,2390.62
2019-06-01T10:50:36.676Z,2115.00
2019-06-01T10:51:36.221Z,1884.38
2019-06-01T10:52:36.249Z,1693.12
2019-06-01T10:53:36.352Z,1361.25
2019-06-01T10:54:36.152Z,1068.75
2019-06-01T10:55:36.189Z,736.88
2019-06-01T10:56:36.273Z,630.00
2019-06-01T10:57:36.615Z,579.38
2019-06-01T10:58:52.418Z,534.38
2019-06-01T10:59:36.355Z,523.12
2019-06-01T11:00:43.259Z,506.25
2019-06-01T11:01:37.448Z,489.38
2019-06-01T11:02:36.596Z,478.12
2019-06-01T11:03:36.607Z,483.75
2019-06-01T11:04:36.671Z,528.75
2019-06-01T11:05:35.273Z,568.12
2019-06-01T11:06:40.943Z,562.50
2019-06-01T11:07:36.778Z,455.62
2019-06-01T11:08:35.848Z,495.00
2019-06-01T11:09:35.235Z,483.75
2019-06-01T11:10:35.229Z,450.00
2019-06-01T11:11:35.213Z,433.12
2019-06-01T11:12:35.210Z,450.00
2019-06-01T11:13:35.197Z,450.00
2019-06-01T11:14:35.181Z,472.50
2019-06-01T11:15:35.173Z,444.38
2019-06-01T11:16:35.259Z,416.25
2019-06-01T11:17:35.154Z,405.00
2019-06-01T11:18:35.333Z,393.75
2019-06-01T11:19:35.316Z,388.12
2019-06-01T11:20:35.255Z,382.50
2019-06-01T11:21:35.498Z,376.88
2019-06-01T11:22:35.472Z,382.50
2019-06-01T11:23:35.546Z,382.50
2019-06-01T11:24:35.370Z,371.25
2019-06-01T11:25:35.621Z,371.25
2019-06-01T11:26:35.560Z,365.62
2019-06-01T11:27:35.634Z,360.00
2019-06-01T11:28:36.215Z,360.00
2019-06-01T11:29:40.085Z,360.00
2019-06-01T11:30:36.035Z,360.00
2019-06-01T11:31:35.996Z,360.00
2019-06-01T11:32:35.921Z,365.62
2019-06-01T11:33:36.033Z,376.88
2019-06-01T11:34:36.438Z,270.00
2019-06-01T11:35:35.058Z,331.88
2019-06-01T11:36:36.178Z,444.38
2019-06-01T11:37:36.081Z,450.00
2019-06-01T11:38:36.205Z,433.12
2019-06-01T11:39:36.297Z,399.38
2019-06-01T11:40:36.404Z,376.88
2019-06-01T11:41:34.929Z,365.62
2019-06-01T11:42:35.109Z,360.00
2019-06-01T11:43:34.911Z,360.00
2019-06-01T11:44:34.907Z,360.00
2019-06-01T11:45:34.954Z,354.38
2019-06-01T11:46:34.886Z,354.38
2019-06-01T11:47:34.872Z,348.75
2019-06-01T11:48:35.187Z,343.12
2019-06-01T11:49:34.859Z,168.75
2019-06-01T11:50:35.207Z,151.88
2019-06-01T11:51:34.950Z,202.50
2019-06-01T11:52:34.994Z,365.62
2019-06-01T11:53:35.173Z,382.50
2019-06-01T11:54:35.100Z,376.88
2019-06-01T11:55:35.154Z,360.00
2019-06-01T11:56:35.172Z,354.38
2019-06-01T11:57:35.242Z,348.75
2019-06-01T11:58:35.136Z,348.75
2019-06-01T11:59:35.282Z,343.12
2019-06-01T12:00:35.397Z,354.38
2019-06-01T12:01:35.614Z,343.12
2019-06-01T12:02:35.527Z,320.62
2019-06-01T12:03:35.522Z,236.25
2019-06-01T12:04:35.732Z,213.75
2019-06-01T12:05:35.794Z,219.38
2019-06-01T12:06:35.678Z,365.62
2019-06-01T12:07:35.672Z,371.25
2019-06-01T12:08:35.890Z,354.38
2019-06-01T12:09:35.739Z,225.00
2019-06-01T12:10:34.663Z,213.75
2019-06-01T12:11:35.720Z,275.62
2019-06-01T12:12:35.947Z,343.12
2019-06-01T12:13:35.921Z,331.88
2019-06-01T12:14:36.194Z,320.62
2019-06-01T12:15:34.616Z,303.75
2019-06-01T12:16:34.611Z,298.12
2019-06-01T12:17:34.601Z,286.88
2019-06-01T12:18:34.597Z,286.88
2019-06-01T12:19:34.595Z,286.88
2019-06-01T12:20:34.565Z,292.50
2019-06-01T12:21:34.563Z,298.12
2019-06-01T12:22:34.555Z,292.50
2019-06-01T12:23:34.544Z,286.88
2019-06-01T12:24:34.530Z,286.88
2019-06-01T12:25:34.525Z,281.25
2019-06-01T12:26:34.512Z,275.62
2019-06-01T12:27:34.501Z,270.00
2019-06-01T12:28:34.520Z,270.00
2019-06-01T12:29:34.488Z,270.00
2019-06-01T12:30:34.478Z,270.00
2019-06-01T12:31:34.462Z,270.00
2019-06-01T12:32:34.454Z,270.00
2019-06-01T12:33:34.448Z,270.00
2019-06-01T12:34:34.456Z,275.62
2019-06-01T12:35:34.431Z,275.62
2019-06-01T12:36:34.420Z,281.25
2019-06-01T12:37:52.391Z,281.25
2019-06-01T12:38:35.402Z,275.62
2019-06-01T12:39:34.402Z,275.62
2019-06-01T12:40:34.407Z,275.62